NORTHEAST SUFFOLK  -  Winter Weather Advisory Winter Weather Advisory        NORTHERN NASSAU  -  Winter Weather Advisory Winter Weather Advisory        NORTHWEST SUFFOLK  -  Winter Weather Advisory Winter Weather Advisory        SOUTHEAST SUFFOLK  -  Winter Weather Advisory Winter Weather Advisory        SOUTHERN NASSAU  -  Winter Weather Advisory Winter Weather Advisory        SOUTHWEST SUFFOLK  -  Winter Weather Advisory Winter Weather Advisory      

Active alerts

Northern Nassau
  Details for Northern Nassau Winter Weather Advisory
Southern Nassau
  Details for Southern Nassau Winter Weather Advisory
Northwest Suffolk
  Details for Northwest Suffolk Winter Weather Advisory
Southwest Suffolk
  Details for Southwest Suffolk Winter Weather Advisory
Northeast Suffolk
  Details for Northeast Suffolk Winter Weather Advisory
Southeast Suffolk
  Details for Southeast Suffolk Winter Weather Advisory


WXM80 ListenWXM80 Stop

You find our weather info also at:

UK Metoffice

WeatherCloud

Weather Underground

Northeastern Weather Network

AWEKAS

Citizen Weather Observer Program (CWOP)

HAMweather, WeatherForYou, PWS Weather


Weather Underground History page Text

Daily Summary for January 10, 2017 Units:  Metric    English   Both
« Previous Day
Next Day »
Daily Weekly Monthly Yearly Custom
  High: Low: Average:
Temperature: 7.5 °C -10.8 °C -2.5 °C
Dew Point: 4.9 °C -12.9 °C -4.9 °C
Humidity: 93 % 72 % 84 %
Wind Speed: 12.4 km/h 0 km/h 2.1 km/h
Wind Gust: 46.7 km/h - -
Wind:- - SSE
Pressure: 1037.5 hPa 1021.9 hPa -
Precipitation: 0 mm    
Historical Graphs
 
 
Tabular Data for January 10, 2017
Time Temperature Dew Point Pressure Wind Wind Speed Wind Gust Humidity Rainfall Rate (Hourly)
00:01 -8.1 °C -11.4 °C 1037.5 hPa WSW 0.2 km/h 46.7 km/h 77 % 0 mm
00:06 -8.1 °C -11.4 °C 1037.5 hPa Calm   46.7 km/h 77 % 0 mm
00:11 -8.2 °C -11.5 °C 1037.1 hPa WSW 1.3 km/h 46.7 km/h 77 % 0 mm
00:16 -8.3 °C -11.8 °C 1037.1 hPa WSW 2.1 km/h 46.7 km/h 76 % 0 mm
00:21 -8.3 °C -11.8 °C 1037.1 hPa WSW 1.8 km/h 46.7 km/h 76 % 0 mm
00:27 -8.4 °C -11.8 °C 1037.1 hPa WSW 2.7 km/h 46.7 km/h 77 % 0 mm
00:32 -8.5 °C -11.8 °C 1037.1 hPa WSW 2.7 km/h 46.7 km/h 77 % 0 mm
00:37 -8.6 °C -11.9 °C 1037.1 hPa WSW 2.9 km/h 46.7 km/h 77 % 0 mm
00:42 -8.7 °C -12 °C 1036.8 hPa WSW 1.4 km/h 46.7 km/h 77 % 0 mm
00:47 -8.7 °C -12 °C 1037.1 hPa WSW 1.4 km/h 46.7 km/h 77 % 0 mm
00:52 -8.8 °C -11.9 °C 1036.8 hPa WSW 0.3 km/h 46.7 km/h 78 % 0 mm
00:57 -8.8 °C -12 °C 1036.8 hPa WSW 2.1 km/h 46.7 km/h 78 % 0 mm
01:02 -8.9 °C -12.1 °C 1036.8 hPa Calm   46.7 km/h 78 % 0 mm
01:07 -9 °C -12.1 °C 1036.8 hPa Calm   46.7 km/h 78 % 0 mm
01:12 -9.1 °C -12.2 °C 1036.8 hPa Calm   46.7 km/h 78 % 0 mm
01:17 -9.2 °C -12.3 °C 1036.5 hPa Calm   46.7 km/h 78 % 0 mm
01:22 -9.3 °C -12.4 °C 1036.5 hPa Calm   46.7 km/h 78 % 0 mm
01:27 -9.3 °C -12.4 °C 1036.5 hPa Calm   46.7 km/h 78 % 0 mm
01:32 -9.4 °C -12.4 °C 1036.5 hPa Calm   46.7 km/h 79 % 0 mm
01:37 -9.5 °C -12.3 °C 1036.5 hPa Calm   46.7 km/h 80 % 0 mm
01:42 -9.6 °C -12.4 °C 1036.8 hPa Calm   46.7 km/h 80 % 0 mm
01:47 -9.7 °C -12.5 °C 1036.8 hPa Calm   46.7 km/h 80 % 0 mm
01:52 -9.8 °C -12.6 °C 1036.8 hPa Calm   46.7 km/h 80 % 0 mm
01:57 -9.8 °C -12.6 °C 1036.8 hPa Calm   46.7 km/h 80 % 0 mm
02:03 -9.9 °C -12.6 °C 1036.8 hPa WSW 0.2 km/h 46.7 km/h 81 % 0 mm
02:08 -9.9 °C -12.6 °C 1036.8 hPa Calm   46.7 km/h 81 % 0 mm
02:13 -10 °C -12.5 °C 1036.8 hPa Calm   46.7 km/h 82 % 0 mm
02:18 -10.1 °C -12.6 °C 1036.8 hPa Calm   46.7 km/h 82 % 0 mm
02:23 -10.1 °C -12.6 °C 1036.8 hPa Calm   46.7 km/h 82 % 0 mm
02:28 -10.2 °C -12.7 °C 1036.8 hPa Calm   46.7 km/h 82 % 0 mm
02:33 -10.2 °C -12.7 °C 1036.8 hPa Calm   46.7 km/h 82 % 0 mm
02:38 -10.2 °C -12.5 °C 1036.5 hPa Calm   46.7 km/h 83 % 0 mm
02:43 -10.2 °C -12.7 °C 1036.8 hPa Calm   46.7 km/h 82 % 0 mm
02:48 -10.3 °C -12.6 °C 1036.8 hPa Calm   46.7 km/h 83 % 0 mm
02:53 -10.3 °C -12.7 °C 1036.8 hPa Calm   46.7 km/h 83 % 0 mm
02:58 -10.4 °C -12.7 °C 1036.5 hPa Calm   46.7 km/h 83 % 0 mm
03:03 -10.4 °C -12.8 °C 1036.8 hPa Calm   46.7 km/h 83 % 0 mm
03:09 -10.4 °C -12.6 °C 1036.5 hPa Calm   46.7 km/h 84 % 0 mm
03:14 -10.5 °C -12.7 °C 1036.5 hPa Calm   46.7 km/h 84 % 0 mm
03:19 -10.5 °C -12.7 °C 1036.5 hPa Calm   46.7 km/h 84 % 0 mm
03:24 -10.6 °C -12.7 °C 1036.5 hPa Calm   46.7 km/h 84 % 0 mm
03:29 -10.6 °C -12.8 °C 1036.8 hPa Calm   46.7 km/h 84 % 0 mm
03:34 -10.7 °C -12.8 °C 1036.8 hPa Calm   46.7 km/h 84 % 0 mm
03:39 -10.7 °C -12.9 °C 1036.8 hPa Calm   46.7 km/h 84 % 0 mm
03:44 -10.8 °C -12.8 °C 1036.5 hPa Calm   46.7 km/h 85 % 0 mm
03:49 -10.8 °C -12.8 °C 1036.5 hPa Calm   46.7 km/h 85 % 0 mm
03:54 -10.8 °C -12.8 °C 1036.5 hPa Calm   1.6 km/h 85 % 0 mm
03:59 -10.8 °C -12.7 °C 1036.5 hPa Calm   46.7 km/h 86 % 0 mm
04:04 -10.8 °C -12.7 °C 1036.1 hPa Calm   1.6 km/h 86 % 0 mm
04:09 -10.7 °C -12.6 °C 1036.1 hPa Calm   46.7 km/h 86 % 0 mm
04:14 -10.7 °C -12.6 °C 1036.5 hPa Calm     86 % 0 mm
04:19 -10.7 °C -12.6 °C 1036.1 hPa Calm   1.6 km/h 86 % 0 mm
04:24 -10.7 °C -12.6 °C 1036.5 hPa Calm   1.6 km/h 86 % 0 mm
04:29 -10.7 °C -12.6 °C 1036.5 hPa WSW 0.2 km/h 46.7 km/h 86 % 0 mm
04:34 -10.7 °C -12.6 °C 1036.5 hPa Calm     86 % 0 mm
04:39 -10.7 °C -12.4 °C 1036.5 hPa Calm     87 % 0 mm
04:44 -10.7 °C -12.4 °C 1036.1 hPa Calm     87 % 0 mm
04:49 -10.6 °C -12.3 °C 1036.5 hPa Calm   1.6 km/h 87 % 0 mm
04:54 -10.6 °C -12.3 °C 1036.5 hPa Calm     87 % 0 mm
04:59 -10.5 °C -12.2 °C 1036.8 hPa WSW 1.1 km/h 46.7 km/h 87 % 0 mm
05:04 -10.5 °C -12.2 °C 1036.8 hPa Calm   46.7 km/h 87 % 0 mm
05:09 -10.4 °C -12.2 °C 1036.8 hPa WSW 0.2 km/h 46.7 km/h 87 % 0 mm
05:14 -10.4 °C -12.1 °C 1036.5 hPa Calm   46.7 km/h 87 % 0 mm
05:19 -10.4 °C -12.1 °C 1036.5 hPa Calm   46.7 km/h 87 % 0 mm
05:24 -10.3 °C -12.1 °C 1036.8 hPa Calm   46.7 km/h 87 % 0 mm
05:29 -10.3 °C -12.1 °C 1036.5 hPa Calm   46.7 km/h 87 % 0 mm
05:34 -10.3 °C -12.1 °C 1036.5 hPa Calm   46.7 km/h 87 % 0 mm
05:39 -10.3 °C -11.9 °C 1036.5 hPa Calm   46.7 km/h 88 % 0 mm
05:45 -10.2 °C -11.8 °C 1036.5 hPa Calm   46.7 km/h 88 % 0 mm
05:50 -10.2 °C -11.8 °C 1036.8 hPa Calm   46.7 km/h 88 % 0 mm
05:55 -10.1 °C -11.7 °C 1036.8 hPa WSW 0.3 km/h 46.7 km/h 88 % 0 mm
06:00 -10 °C -11.6 °C 1036.8 hPa Calm   46.7 km/h 88 % 0 mm
06:05 -10 °C -11.6 °C 1036.5 hPa Calm   46.7 km/h 88 % 0 mm
06:10 -9.9 °C -11.5 °C 1036.5 hPa Calm   46.7 km/h 88 % 0 mm
06:15 -9.9 °C -11.5 °C 1036.8 hPa Calm   46.7 km/h 88 % 0 mm
06:20 -9.9 °C -11.5 °C 1036.8 hPa Calm   46.7 km/h 88 % 0 mm
06:25 -9.8 °C -11.4 °C 1036.8 hPa Calm   46.7 km/h 88 % 0 mm
06:30 -9.8 °C -11.4 °C 1036.8 hPa Calm   46.7 km/h 88 % 0 mm
06:35 -9.8 °C -11.4 °C 1036.8 hPa Calm   46.7 km/h 88 % 0 mm
06:40 -9.8 °C -11.2 °C 1036.8 hPa Calm   46.7 km/h 89 % 0 mm
06:45 -9.8 °C -11.2 °C 1036.8 hPa Calm   46.7 km/h 89 % 0 mm
06:50 -9.8 °C -11.2 °C 1036.8 hPa Calm   46.7 km/h 89 % 0 mm
06:56 -9.7 °C -11.2 °C 1036.8 hPa Calm   46.7 km/h 89 % 0 mm
07:01 -9.7 °C -11.2 °C 1036.5 hPa Calm   46.7 km/h 89 % 0 mm
07:06 -9.6 °C -11.1 °C 1036.5 hPa Calm   46.7 km/h 89 % 0 mm
07:11 -9.6 °C -11.1 °C 1036.5 hPa Calm   46.7 km/h 89 % 0 mm
07:16 -9.6 °C -11.1 °C 1036.5 hPa Calm   46.7 km/h 89 % 0 mm
07:21 -9.5 °C -11 °C 1036.1 hPa Calm   46.7 km/h 89 % 0 mm
07:26 -9.4 °C -10.9 °C 1036.5 hPa Calm   46.7 km/h 89 % 0 mm
07:31 -9.4 °C -10.9 °C 1036.5 hPa Calm   46.7 km/h 89 % 0 mm
07:36 -9.3 °C -10.8 °C 1036.5 hPa Calm   46.7 km/h 89 % 0 mm
07:41 -9.3 °C -10.8 °C 1036.5 hPa Calm   46.7 km/h 89 % 0 mm
07:46 -9.2 °C -10.7 °C 1036.8 hPa WSW 0.5 km/h 46.7 km/h 89 % 0 mm
07:51 -9.1 °C -10.4 °C 1036.8 hPa Calm   46.7 km/h 90 % 0 mm
07:56 -9 °C -10.3 °C 1036.8 hPa Calm   46.7 km/h 90 % 0 mm
08:01 -8.8 °C -10.2 °C 1036.8 hPa Calm   46.7 km/h 90 % 0 mm
08:06 -8.7 °C -10.1 °C 1036.8 hPa Calm   46.7 km/h 90 % 0 mm
08:11 -8.6 °C -9.9 °C 1036.8 hPa Calm   46.7 km/h 90 % 0 mm
08:16 -8.4 °C -9.8 °C 1036.8 hPa Calm   46.7 km/h 90 % 0 mm
08:22 -8.3 °C -9.5 °C 1036.8 hPa Calm   46.7 km/h 91 % 0 mm
08:27 -8.2 °C -9.4 °C 1036.5 hPa Calm   46.7 km/h 91 % 0 mm
08:32 -8 °C -9.2 °C 1036.5 hPa Calm   46.7 km/h 91 % 0 mm
08:37 -7.8 °C -9 °C 1036.5 hPa Calm   46.7 km/h 91 % 0 mm
08:42 -7.6 °C -8.8 °C 1036.5 hPa Calm   46.7 km/h 91 % 0 mm
08:47 -7.4 °C -8.7 °C 1036.8 hPa Calm   46.7 km/h 91 % 0 mm
08:52 -7.2 °C -8.4 °C 1036.8 hPa Calm   46.7 km/h 91 % 0 mm
08:57 -7 °C -8.2 °C 1036.8 hPa Calm   46.7 km/h 91 % 0 mm
09:02 -6.8 °C -8 °C 1036.5 hPa Calm   46.7 km/h 91 % 0 mm
09:07 -6.6 °C -7.7 °C 1036.5 hPa Calm   46.7 km/h 92 % 0 mm
09:12 -6.3 °C -7.4 °C 1036.5 hPa Calm   46.7 km/h 92 % 0 mm
09:17 -5.9 °C -7 °C 1036.5 hPa Calm   46.7 km/h 92 % 0 mm
09:22 -5.4 °C -6.6 °C 1036.8 hPa WSW 3.1 km/h 46.7 km/h 92 % 0 mm
09:27 -4.9 °C -6.2 °C 1036.8 hPa West 0.8 km/h 46.7 km/h 91 % 0 mm
09:32 -4.4 °C -6.1 °C 1036.8 hPa West 2.4 km/h 46.7 km/h 88 % 0 mm
09:37 -3.9 °C -6.1 °C 1036.8 hPa WNW 2.7 km/h 46.7 km/h 85 % 0 mm
09:42 -3.4 °C -6.2 °C 1036.8 hPa West 2.4 km/h 46.7 km/h 81 % 0 mm
09:47 -3.1 °C -6.2 °C 1036.8 hPa West 3.1 km/h 46.7 km/h 79 % 0 mm
09:52 -2.8 °C -6.3 °C 1036.8 hPa West 2.4 km/h 46.7 km/h 77 % 0 mm
09:58 -2.5 °C -6.2 °C 1036.8 hPa Calm   46.7 km/h 76 % 0 mm
10:03 -2.3 °C -6.1 °C 1036.8 hPa Calm   46.7 km/h 75 % 0 mm
10:08 -2.1 °C -6.1 °C 1037.1 hPa West 0.2 km/h 46.7 km/h 74 % 0 mm
10:13 -1.8 °C -5.8 °C 1036.8 hPa West 0.3 km/h 46.7 km/h 74 % 0 mm
10:18 -1.7 °C -5.9 °C 1036.8 hPa Calm   46.7 km/h 73 % 0 mm
10:23 -1.5 °C -5.7 °C 1036.8 hPa Calm   46.7 km/h 73 % 0 mm
10:28 -1.4 °C -5.8 °C 1036.8 hPa West 0.5 km/h 46.7 km/h 72 % 0 mm
10:33 -1.3 °C -5.7 °C 1036.5 hPa WNW 1.6 km/h 46.7 km/h 72 % 0 mm
10:38 -1.3 °C -5.7 °C 1036.5 hPa WNW 1 km/h 46.7 km/h 72 % 0 mm
10:43 -1.3 °C -5.5 °C 1036.5 hPa NE 1.6 km/h 46.7 km/h 73 % 0 mm
10:48 -1.3 °C -5.5 °C 1036.5 hPa NE 1.3 km/h 46.7 km/h 73 % 0 mm
10:53 -1.2 °C -5.4 °C 1036.1 hPa NE 0.8 km/h 46.7 km/h 73 % 0 mm
10:58 -1.1 °C -5.3 °C 1036.1 hPa ENE 3.2 km/h 46.7 km/h 73 % 0 mm
11:03 -1.1 °C -5.3 °C 1036.1 hPa ENE 1.8 km/h 46.7 km/h 73 % 0 mm
11:09 -1 °C -5.1 °C 1035.8 hPa East 3.9 km/h 46.7 km/h 74 % 0 mm
11:14 -1.1 °C -5.3 °C 1035.4 hPa East 1.8 km/h 46.7 km/h 73 % 0 mm
11:19 -0.9 °C -5 °C 1035.4 hPa East 2.1 km/h 46.7 km/h 74 % 0 mm
11:24 -0.9 °C -4.9 °C 1035.1 hPa ENE 4.5 km/h 46.7 km/h 74 % 0 mm
11:29 -0.8 °C -4.9 °C 1035.1 hPa ENE 3.9 km/h 46.7 km/h 74 % 0 mm
11:34 -0.8 °C -4.8 °C 1034.8 hPa ENE 3.2 km/h 6.4 km/h 74 % 0 mm
11:39 -0.7 °C -4.6 °C 1034.8 hPa ENE 3.2 km/h 8 km/h 75 % 0 mm
11:44 -0.6 °C -4.4 °C 1034.4 hPa ENE 1.6 km/h 8 km/h 75 % 0 mm
11:49 -0.4 °C -4.3 °C 1034.4 hPa ENE 1.6 km/h 4.8 km/h 75 % 0 mm
11:54 -0.4 °C -4.3 °C 1034.4 hPa ENE 3.2 km/h 8 km/h 75 % 0 mm
11:59 -0.4 °C -4.3 °C 1034.1 hPa ENE 1.1 km/h 46.7 km/h 75 % 0 mm
12:04 -0.3 °C -4.2 °C 1034.1 hPa ENE 1.3 km/h 46.7 km/h 75 % 0 mm
12:09 -0.2 °C -3.9 °C 1033.7 hPa ENE 1.1 km/h 46.7 km/h 76 % 0 mm
12:14 0.1 °C -3.5 °C 1033.7 hPa SE 2.9 km/h 46.7 km/h 77 % 0 mm
12:19 0.3 °C -3.2 °C 1033.7 hPa SSE 7.2 km/h 46.7 km/h 77 % 0 mm
12:24 0.7 °C -3.3 °C 1033.4 hPa ESE 3.4 km/h 46.7 km/h 75 % 0 mm
12:29 0.9 °C -3.1 °C 1033.4 hPa South 4.2 km/h 46.7 km/h 75 % 0 mm
12:34 1.1 °C -2.9 °C 1033.4 hPa SSE 0.2 km/h 46.7 km/h 75 % 0 mm
12:39 1.3 °C -2.6 °C 1033.4 hPa SSE 3.1 km/h 46.7 km/h 75 % 0 mm
12:45 1.6 °C -2.3 °C 1033.1 hPa SSE 4 km/h 46.7 km/h 75 % 0 mm
12:50 1.8 °C -2.4 °C 1033.1 hPa SE 4.7 km/h 46.7 km/h 74 % 0 mm
12:55 1.9 °C -2.2 °C 1032.7 hPa SSE 6.9 km/h 46.7 km/h 74 % 0 mm
13:00 2.1 °C -2.1 °C 1032.7 hPa SE 2.6 km/h 46.7 km/h 74 % 0 mm
13:05 2.3 °C -1.9 °C 1032.7 hPa SE 7.4 km/h 46.7 km/h 74 % 0 mm
13:10 2.5 °C -1.7 °C 1032.7 hPa SSE 4.7 km/h 46.7 km/h 74 % 0 mm
13:15 2.7 °C -1.3 °C 1032.7 hPa Calm   46.7 km/h 75 % 0 mm
13:20 2.8 °C -1.6 °C 1032.4 hPa ENE 3.2 km/h 46.7 km/h 73 % 0 mm
13:25 2.8 °C -1.3 °C 1032.4 hPa East 7.6 km/h 46.7 km/h 74 % 0 mm
13:26 2.8 °C -1.3 °C 1032.4 hPa East 4.3 km/h 46.7 km/h 74 % 0 mm
13:31 2.7 °C -1.5 °C 1032.4 hPa East 2.9 km/h 46.7 km/h 74 % 0 mm
13:36 2.6 °C -1.6 °C 1032.4 hPa ENE 4.3 km/h 46.7 km/h 74 % 0 mm
13:41 2.5 °C -1.5 °C 1032.1 hPa East 4.3 km/h 46.7 km/h 75 % 0 mm
13:47 2.3 °C -1.7 °C 1032.1 hPa East 2.9 km/h 46.7 km/h 75 % 0 mm
13:52 2.3 °C -1.7 °C 1032.1 hPa ENE 4.3 km/h 46.7 km/h 75 % 0 mm
13:57 2.2 °C -1.6 °C 1032.1 hPa ENE 4 km/h 46.7 km/h 76 % 0 mm
14:02 2.2 °C -1.6 °C 1032.1 hPa ENE 3.7 km/h 46.7 km/h 76 % 0 mm
14:07 2.1 °C -1.5 °C 1031.7 hPa ENE 3.9 km/h 46.7 km/h 77 % 0 mm
14:12 2.1 °C -1.5 °C 1031.7 hPa ENE 2.9 km/h 46.7 km/h 77 % 0 mm
14:17 2.1 °C -1.6 °C 1031.7 hPa ENE 5 km/h 46.7 km/h 77 % 0 mm
14:22 2 °C -1.4 °C 1031.7 hPa ENE 3.2 km/h 46.7 km/h 78 % 0 mm
14:27 1.9 °C -1.3 °C 1031.7 hPa East 2.4 km/h 46.7 km/h 79 % 0 mm
14:32 1.9 °C -1.4 °C 1031.7 hPa ENE 3.4 km/h 46.7 km/h 79 % 0 mm
14:37 1.8 °C -1.4 °C 1031.7 hPa ENE 4.5 km/h 46.7 km/h 79 % 0 mm
14:42 1.8 °C -1.3 °C 1031.7 hPa ENE 2.6 km/h 46.7 km/h 80 % 0 mm
14:47 1.7 °C -1.3 °C 1031.7 hPa ENE 4.7 km/h 46.7 km/h 80 % 0 mm
14:52 1.7 °C -1.2 °C 1031.7 hPa ENE 3.9 km/h 46.7 km/h 81 % 0 mm
14:57 1.7 °C -1.1 °C 1031.4 hPa ENE 1 km/h 46.7 km/h 82 % 0 mm
15:03 1.7 °C -1.1 °C 1031.4 hPa ENE 5.5 km/h 46.7 km/h 82 % 0 mm
15:08 1.7 °C -1.1 °C 1031.4 hPa ENE 1.4 km/h 46.7 km/h 82 % 0 mm
15:13 1.7 °C -0.8 °C 1031 hPa ENE 2.7 km/h 46.7 km/h 83 % 0 mm
15:18 1.8 °C -0.8 °C 1030.7 hPa ENE 2.9 km/h 46.7 km/h 83 % 0 mm
15:23 1.8 °C -0.7 °C 1030.4 hPa ENE 3.1 km/h 46.7 km/h 83 % 0 mm
15:28 1.8 °C -0.6 °C 1030.4 hPa ENE 4.3 km/h 46.7 km/h 84 % 0 mm
15:33 1.8 °C -0.6 °C 1030 hPa East 4.2 km/h 46.7 km/h 84 % 0 mm
15:38 1.8 °C -0.6 °C 1030 hPa East 2.9 km/h 46.7 km/h 84 % 0 mm
15:43 1.8 °C -0.6 °C 1030 hPa East 2.7 km/h 46.7 km/h 84 % 0 mm
15:48 1.8 °C -0.4 °C 1030.4 hPa Calm   46.7 km/h 85 % 0 mm
15:53 1.8 °C -0.4 °C 1030.4 hPa Calm   46.7 km/h 85 % 0 mm
15:58 1.8 °C -0.4 °C 1030.7 hPa East 1.4 km/h 46.7 km/h 85 % 0 mm
16:04 1.8 °C -0.4 °C 1030.7 hPa Calm   46.7 km/h 85 % 0 mm
16:09 1.9 °C -0.4 °C 1030.7 hPa Calm   46.7 km/h 85 % 0 mm
16:14 1.9 °C -0.4 °C 1030.7 hPa Calm   46.7 km/h 85 % 0 mm
16:19 1.9 °C -0.4 °C 1030.7 hPa Calm   46.7 km/h 85 % 0 mm
16:24 1.9 °C -0.4 °C 1030.7 hPa Calm   46.7 km/h 85 % 0 mm
16:29 1.9 °C -0.4 °C 1030.4 hPa Calm   46.7 km/h 85 % 0 mm
16:34 1.9 °C -0.4 °C 1030.4 hPa Calm   46.7 km/h 85 % 0 mm
16:39 1.8 °C -0.4 °C 1030.4 hPa Calm   46.7 km/h 85 % 0 mm
16:44 1.8 °C -0.4 °C 1030.4 hPa Calm   46.7 km/h 85 % 0 mm
16:49 1.8 °C -0.4 °C 1030 hPa Calm   46.7 km/h 85 % 0 mm
16:54 1.8 °C -0.4 °C 1030 hPa Calm     85 % 0 mm
17:05 1.8 °C -0.5 °C 1030 hPa East 3.2 km/h 3.7 km/h 85 % 0 mm
17:10 1.8 °C -0.5 °C 1030 hPa Calm     85 % 0 mm
17:15 1.7 °C -0.6 °C 1029.7 hPa Calm     85 % 0 mm
17:20 1.7 °C -0.6 °C 1029.7 hPa Calm     85 % 0 mm
17:25 1.7 °C -0.4 °C 1029.7 hPa Calm     86 % 0 mm
17:30 1.7 °C -0.4 °C 1029.7 hPa Calm     86 % 0 mm
17:35 1.6 °C -0.5 °C 1029.7 hPa Calm     86 % 0 mm
17:40 1.6 °C -0.5 °C 1029.7 hPa Calm     86 % 0 mm
17:45 1.6 °C -0.6 °C 1029.7 hPa Calm     86 % 0 mm
17:50 1.6 °C -0.6 °C 1029.7 hPa Calm     86 % 0 mm
17:55 1.5 °C -0.6 °C 1029.7 hPa Calm     86 % 0 mm
18:00 1.5 °C -0.6 °C 1029.3 hPa Calm     86 % 0 mm
18:05 1.4 °C -0.7 °C 1029.3 hPa Calm     86 % 0 mm
18:10 1.4 °C -0.7 °C 1029.3 hPa Calm     86 % 0 mm
18:15 1.4 °C -0.7 °C 1029.3 hPa Calm     86 % 0 mm
18:21 1.4 °C -0.7 °C 1029.3 hPa Calm     86 % 0 mm
18:26 1.4 °C -0.7 °C 1029 hPa Calm     86 % 0 mm
18:31 1.3 °C -0.8 °C 1029 hPa Calm     86 % 0 mm
18:36 1.3 °C -0.8 °C 1029 hPa Calm     86 % 0 mm
18:41 1.3 °C -0.7 °C 1029 hPa Calm     87 % 0 mm
18:46 1.3 °C -0.7 °C 1029 hPa Calm     87 % 0 mm
18:51 1.3 °C -0.7 °C 1028.7 hPa Calm     87 % 0 mm
18:56 1.2 °C -0.7 °C 1028.7 hPa Calm     87 % 0 mm
19:01 1.2 °C -0.7 °C 1028.3 hPa Calm     87 % 0 mm
19:06 1.2 °C -0.8 °C 1028.3 hPa Calm     87 % 0 mm
19:11 1.2 °C -0.8 °C 1028.3 hPa Calm     87 % 0 mm
19:16 1.2 °C -0.6 °C 1028.3 hPa East 0.8 km/h 1.9 km/h 88 % 0 mm
19:21 1.2 °C -0.6 °C 1028 hPa Calm     88 % 0 mm
19:26 1.2 °C -0.6 °C 1028 hPa Calm   1.9 km/h 88 % 0 mm
19:31 1.2 °C -0.4 °C 1027.7 hPa Calm   1.9 km/h 89 % 0 mm
19:37 1.2 °C -0.4 °C 1027.7 hPa ESE 3.7 km/h 5.6 km/h 89 % 0 mm
19:42 1.3 °C -0.2 °C 1027.7 hPa ESE 1.9 km/h 3.7 km/h 90 % 0 mm
19:47 1.3 °C -0.1 °C 1027.3 hPa SSE 4.3 km/h 5.6 km/h 90 % 0 mm
19:52 1.5 °C 0.2 °C 1027.3 hPa SE 3.9 km/h 6.4 km/h 91 % 0 mm
19:57 1.7 °C 0.6 °C 1027 hPa SSE 4.8 km/h 7.4 km/h 92 % 0 mm
20:02 2 °C 1 °C 1026.6 hPa SSE 6.8 km/h 9.7 km/h 93 % 0 mm
20:07 2.3 °C 1.3 °C 1026.6 hPa SSE 5.3 km/h 11.3 km/h 93 % 0 mm
20:12 2.4 °C 1.4 °C 1026.6 hPa SSE 2.4 km/h 5.6 km/h 93 % 0 mm
20:17 2.7 °C 1.7 °C 1026.6 hPa SSE 1.1 km/h 5.6 km/h 93 % 0 mm
20:22 2.8 °C 1.8 °C 1026.3 hPa SSE 3.9 km/h 9.3 km/h 93 % 0 mm
20:27 2.9 °C 1.9 °C 1026.6 hPa South 3.9 km/h 5.6 km/h 93 % 0 mm
20:32 3.1 °C 2.1 °C 1026.6 hPa South 3.2 km/h 5.6 km/h 93 % 0 mm
20:37 3.3 °C 2.3 °C 1026.3 hPa SSE 11.4 km/h 18.5 km/h 93 % 0 mm
20:42 3.4 °C 2.4 °C 1026.3 hPa South 1 km/h 5.6 km/h 93 % 0 mm
20:47 3.6 °C 2.6 °C 1026.3 hPa South 4 km/h 8 km/h 93 % 0 mm
20:53 3.7 °C 2.7 °C 1026.3 hPa South 4.7 km/h 9.3 km/h 93 % 0 mm
20:58 3.8 °C 2.7 °C 1026.3 hPa SSW 2.9 km/h 9.3 km/h 93 % 0 mm
21:03 3.9 °C 2.8 °C 1026 hPa SSW 4.3 km/h 11.1 km/h 93 % 0 mm
21:08 4.1 °C 3 °C 1026 hPa SSE 4.5 km/h 9.3 km/h 93 % 0 mm
21:13 4.2 °C 3.2 °C 1025.6 hPa South 3.2 km/h 11.1 km/h 93 % 0 mm
21:18 4.4 °C 3.3 °C 1025.6 hPa SSE 7.6 km/h 13 km/h 93 % 0 mm
21:23 4.6 °C 3.5 °C 1025.3 hPa South 4.7 km/h 13 km/h 93 % 0 mm
21:28 4.7 °C 3.7 °C 1025.3 hPa South 6.4 km/h 14.8 km/h 93 % 0 mm
21:33 4.8 °C 3.7 °C 1024.9 hPa South 5.1 km/h 11.1 km/h 92 % 0 mm
21:38 4.9 °C 3.8 °C 1024.9 hPa SSE 5.8 km/h 11.1 km/h 92 % 0 mm
21:43 5 °C 3.8 °C 1024.9 hPa SSW 6.9 km/h 11.1 km/h 92 % 0 mm
21:48 5.2 °C 4 °C 1024.9 hPa SSW 8 km/h 18.5 km/h 92 % 0 mm
21:54 5.3 °C 4 °C 1024.6 hPa SE 8.4 km/h 13 km/h 91 % 0 mm
21:59 5.4 °C 4.1 °C 1024.6 hPa SW 8.9 km/h 16.7 km/h 91 % 0 mm
22:04 5.5 °C 4 °C 1024.3 hPa South 6 km/h 9.7 km/h 90 % 0 mm
22:09 5.6 °C 4.1 °C 1024.3 hPa South 11.1 km/h 14.5 km/h 90 % 0 mm
22:14 5.7 °C 4.1 °C 1023.9 hPa SE 10 km/h 16.7 km/h 89 % 0 mm
22:19 5.8 °C 4.1 °C 1024.3 hPa SSE 9.5 km/h 14.8 km/h 89 % 0 mm
22:24 5.9 °C 4.1 °C 1023.9 hPa South 7.6 km/h 11.3 km/h 88 % 0 mm
22:29 6 °C 4.2 °C 1023.6 hPa SSE 8.2 km/h 18.5 km/h 88 % 0 mm
22:34 6.2 °C 4.2 °C 1023.6 hPa South 11.3 km/h 19.3 km/h 87 % 0 mm
22:39 6.3 °C 4.3 °C 1023.6 hPa South 3.2 km/h 19.3 km/h 87 % 0 mm
22:44 6.4 °C 4.2 °C 1023.6 hPa South 10.9 km/h 18.5 km/h 86 % 0 mm
22:49 6.6 °C 4.4 °C 1023.6 hPa SSW 11.4 km/h 18.5 km/h 86 % 0 mm
22:54 6.6 °C 4.4 °C 1023.2 hPa SSE 12.4 km/h 18.5 km/h 86 % 0 mm
22:59 6.8 °C 4.4 °C 1023.2 hPa SSW 9.3 km/h 20.4 km/h 85 % 0 mm
23:04 6.9 °C 4.4 °C 1023.2 hPa SSW 8.7 km/h 18.5 km/h 84 % 0 mm
23:09 7 °C 4.7 °C 1022.9 hPa WSW 6.1 km/h 11.1 km/h 85 % 0 mm
23:14 7.1 °C 4.7 °C 1022.6 hPa South 9.7 km/h 18.5 km/h 85 % 0 mm
23:19 7.2 °C 4.7 °C 1022.6 hPa South 8.7 km/h 14.8 km/h 84 % 0 mm
23:25 7.3 °C 4.8 °C 1022.6 hPa SSW 6.6 km/h 16.7 km/h 84 % 0 mm
23:30 7.3 °C 4.8 °C 1022.6 hPa SSE 8.7 km/h 11.1 km/h 84 % 0 mm
23:35 7.4 °C 4.8 °C 1022.2 hPa South 7.4 km/h 20.9 km/h 84 % 0 mm
23:40 7.4 °C 4.9 °C 1022.2 hPa SSW 7.7 km/h 12.9 km/h 84 % 0 mm
23:45 7.5 °C 4.9 °C 1022.2 hPa South 8.2 km/h 13 km/h 84 % 0 mm
23:50 7.4 °C 4.9 °C 1021.9 hPa SSE 5.6 km/h 9.3 km/h 84 % 0 mm
23:55 7.5 °C 4.9 °C 1021.9 hPa South 10.6 km/h 18.5 km/h 84 % 0 mm
Crab Meadow Weather
Compliments of Weather Underground - 3 mb

Script developed by  Jim McMurry - jmcmurry@mwt.net Adapted for the template by  Wim van der Kuil - Leuven-Template.eu

Lightning: Lightning is equivalent to the electric power of 100 million light bulbs in your face.